2026/08/15

Sensor Date Temp./Hum.
h4-hermonville 15-08-2026 - 23:58 28.5°C / 45.5%
h2-hermonville 15-08-2026 - 23:54 28.8°C / 45.5%
h1-hermonville 15-08-2026 - 23:53 27.4°C / 48.5%
h3-hermonville 15-08-2026 - 23:50 28°C / 46.5%
h4-hermonville 15-08-2026 - 23:48 28.4°C / 45%
h2-hermonville 15-08-2026 - 23:44 28.8°C / 45%
h1-hermonville 15-08-2026 - 23:43 27.6°C / 47.5%
h3-hermonville 15-08-2026 - 23:40 28°C / 45.5%
h4-hermonville 15-08-2026 - 23:38 28.5°C / 44%
h2-hermonville 15-08-2026 - 23:34 28.6°C / 44.5%
h1-hermonville 15-08-2026 - 23:33 27.8°C / 46.5%
h3-hermonville 15-08-2026 - 23:30 28.1°C / 44.5%
h4-hermonville 15-08-2026 - 23:28 28.5°C / 43.5%
h2-hermonville 15-08-2026 - 23:24 28.5°C / 45%
h1-hermonville 15-08-2026 - 23:23 27.4°C / 46.5%
h3-hermonville 15-08-2026 - 23:20 28.1°C / 45%
h4-hermonville 15-08-2026 - 23:18 28.4°C / 44%
h2-hermonville 15-08-2026 - 23:14 28.2°C / 45%
h1-hermonville 15-08-2026 - 23:13 27.3°C / 47%
h3-hermonville 15-08-2026 - 23:10 28°C / 45%
h4-hermonville 15-08-2026 - 23:08 28.3°C / 44%
h2-hermonville 15-08-2026 - 23:04 27.8°C / 46%
h1-hermonville 15-08-2026 - 23:03 27.5°C / 46.5%
h4-hermonville 15-08-2026 - 22:58 28.3°C / 44%
h2-hermonville 15-08-2026 - 22:54 27.6°C / 46.5%
h1-hermonville 15-08-2026 - 22:53 27.6°C / 46%
h3-hermonville 15-08-2026 - 22:50 28°C / 45%
h4-hermonville 15-08-2026 - 22:48 28.4°C / 43.5%
h2-hermonville 15-08-2026 - 22:44 27.5°C / 47%
h1-hermonville 15-08-2026 - 22:43 27.7°C / 46%
h3-hermonville 15-08-2026 - 22:40 28.3°C / 44%
h4-hermonville 15-08-2026 - 22:38 28.5°C / 43.5%
h2-hermonville 15-08-2026 - 22:34 27.9°C / 45%
h1-hermonville 15-08-2026 - 22:33 27.7°C / 45.5%
h3-hermonville 15-08-2026 - 22:30 28.4°C / 44%
h4-hermonville 15-08-2026 - 22:28 28.6°C / 43.5%
h1-hermonville 15-08-2026 - 22:23 27.9°C / 45%
h3-hermonville 15-08-2026 - 22:20 28.5°C / 43.5%
h4-hermonville 15-08-2026 - 22:18 28.6°C / 43%
h2-hermonville 15-08-2026 - 22:14 28°C / 45.5%
h1-hermonville 15-08-2026 - 22:13 28°C / 45%
h3-hermonville 15-08-2026 - 22:10 28.5°C / 44%
h4-hermonville 15-08-2026 - 22:08 28.7°C / 43%
h2-hermonville 15-08-2026 - 22:04 28.1°C / 45.5%
h1-hermonville 15-08-2026 - 22:03 28.1°C / 45%
h4-hermonville 15-08-2026 - 21:58 28.9°C / 42.5%
h2-hermonville 15-08-2026 - 21:54 28.3°C / 45%
h1-hermonville 15-08-2026 - 21:53 28.2°C / 44.5%
h3-hermonville 15-08-2026 - 21:50 28.7°C / 43.5%
h4-hermonville 15-08-2026 - 21:48 29°C / 42%
h1-hermonville 15-08-2026 - 21:43 28.3°C / 44.5%
h3-hermonville 15-08-2026 - 21:40 28.7°C / 43.5%
h4-hermonville 15-08-2026 - 21:38 29.1°C / 42%
h2-hermonville 15-08-2026 - 21:34 28.4°C / 45%
h1-hermonville 15-08-2026 - 21:33 28.4°C / 44.5%
h3-hermonville 15-08-2026 - 21:30 28.9°C / 43%
h4-hermonville 15-08-2026 - 21:28 29.2°C / 42%
h2-hermonville 15-08-2026 - 21:24 28.6°C / 44.5%
h1-hermonville 15-08-2026 - 21:23 28.5°C / 44.5%
h3-hermonville 15-08-2026 - 21:20 29.1°C / 43%
h4-hermonville 15-08-2026 - 21:18 29.4°C / 42%
h2-hermonville 15-08-2026 - 21:14 29.1°C / 44%
h1-hermonville 15-08-2026 - 21:13 28.7°C / 45%
h3-hermonville 15-08-2026 - 21:10 29.1°C / 43.5%
h4-hermonville 15-08-2026 - 21:08 29.7°C / 41.5%
h2-hermonville 15-08-2026 - 21:04 29.6°C / 43.5%
h1-hermonville 15-08-2026 - 21:03 29°C / 44%
h4-hermonville 15-08-2026 - 20:58 29.8°C / 41.5%
h2-hermonville 15-08-2026 - 20:54 29.9°C / 42.5%
h1-hermonville 15-08-2026 - 20:53 29.1°C / 43.5%
h3-hermonville 15-08-2026 - 20:50 29.7°C / 42%
h4-hermonville 15-08-2026 - 20:48 29.9°C / 41.5%
h2-hermonville 15-08-2026 - 20:44 30.5°C / 41%
h1-hermonville 15-08-2026 - 20:43 29.4°C / 43%
h3-hermonville 15-08-2026 - 20:40 30°C / 41.5%
h4-hermonville 15-08-2026 - 20:38 30.1°C / 40.5%
h2-hermonville 15-08-2026 - 20:34 31.1°C / 40%
h1-hermonville 15-08-2026 - 20:33 29.7°C / 42%
h3-hermonville 15-08-2026 - 20:30 30.2°C / 40.5%
h4-hermonville 15-08-2026 - 20:28 30.3°C / 40%
h2-hermonville 15-08-2026 - 20:24 31.4°C / 38.5%
h1-hermonville 15-08-2026 - 20:23 29.9°C / 41%
h4-hermonville 15-08-2026 - 20:18 30.6°C / 39%
h2-hermonville 15-08-2026 - 20:14 31.7°C / 37.5%
h1-hermonville 15-08-2026 - 20:13 30.2°C / 40%
h3-hermonville 15-08-2026 - 20:10 30.7°C / 38%
h4-hermonville 15-08-2026 - 20:08 30.7°C / 38.5%
h2-hermonville 15-08-2026 - 20:04 31.8°C / 37%
h1-hermonville 15-08-2026 - 20:03 30.3°C / 39%
h4-hermonville 15-08-2026 - 19:58 30.8°C / 37.5%
h2-hermonville 15-08-2026 - 19:54 31.7°C / 37%
h1-hermonville 15-08-2026 - 19:53 30.5°C / 38%
h3-hermonville 15-08-2026 - 19:50 31°C / 37%
h4-hermonville 15-08-2026 - 19:48 30.9°C / 36.5%
h2-hermonville 15-08-2026 - 19:44 31.6°C / 37%
h1-hermonville 15-08-2026 - 19:43 30.7°C / 37.5%
h3-hermonville 15-08-2026 - 19:40 31.2°C / 36%
h4-hermonville 15-08-2026 - 19:38 31°C / 36%
h2-hermonville 15-08-2026 - 19:34 31.6°C / 36.5%
h1-hermonville 15-08-2026 - 19:33 30.8°C / 36.5%
h3-hermonville 15-08-2026 - 19:30 31.3°C / 36%
h4-hermonville 15-08-2026 - 19:28 31.2°C / 36%
h2-hermonville 15-08-2026 - 19:24 32.1°C / 35.5%
h1-hermonville 15-08-2026 - 19:23 30.9°C / 36.5%
h3-hermonville 15-08-2026 - 19:20 31.3°C / 36%
h4-hermonville 15-08-2026 - 19:18 31.2°C / 36%
h2-hermonville 15-08-2026 - 19:14 32°C / 36%
h1-hermonville 15-08-2026 - 19:13 31°C / 36.5%
h3-hermonville 15-08-2026 - 19:10 31.4°C / 35.5%
h4-hermonville 15-08-2026 - 19:08 31.2°C / 36%
h1-hermonville 15-08-2026 - 19:03 30.9°C / 36.5%
h4-hermonville 15-08-2026 - 18:58 31.3°C / 36%
h1-hermonville 15-08-2026 - 18:53 31°C / 36.5%
h3-hermonville 15-08-2026 - 18:50 31.4°C / 35.5%
h4-hermonville 15-08-2026 - 18:48 31.2°C / 35.5%
h1-hermonville 15-08-2026 - 18:43 31.1°C / 36%
h3-hermonville 15-08-2026 - 18:40 31.5°C / 35%
h4-hermonville 15-08-2026 - 18:38 31.2°C / 35%
h2-hermonville 15-08-2026 - 18:34 31.3°C / 36.5%
h1-hermonville 15-08-2026 - 18:33 31°C / 36%
h3-hermonville 15-08-2026 - 18:30 31.6°C / 35%
h4-hermonville 15-08-2026 - 18:28 31.3°C / 35%
h2-hermonville 15-08-2026 - 18:24 31.3°C / 36.5%
h1-hermonville 15-08-2026 - 18:23 31.2°C / 35.5%
h3-hermonville 15-08-2026 - 18:20 31.8°C / 34.5%
h4-hermonville 15-08-2026 - 18:18 31.4°C / 35%
h2-hermonville 15-08-2026 - 18:14 31.5°C / 36%
h1-hermonville 15-08-2026 - 18:13 31.2°C / 35%
h3-hermonville 15-08-2026 - 18:10 31.9°C / 34%
h4-hermonville 15-08-2026 - 18:08 31.5°C / 34.5%
h2-hermonville 15-08-2026 - 18:04 32°C / 35%
h1-hermonville 15-08-2026 - 18:03 31.4°C / 35%
h4-hermonville 15-08-2026 - 17:58 31.6°C / 34.5%
h2-hermonville 15-08-2026 - 17:54 33°C / 33.5%
h1-hermonville 15-08-2026 - 17:53 31.6°C / 35%
h3-hermonville 15-08-2026 - 17:50 32.6°C / 33%
h4-hermonville 15-08-2026 - 17:48 31.6°C / 34.5%
h2-hermonville 15-08-2026 - 17:44 33.6°C / 33%
h1-hermonville 15-08-2026 - 17:43 31.9°C / 34%
h3-hermonville 15-08-2026 - 17:40 33.1°C / 32.5%
h4-hermonville 15-08-2026 - 17:38 31.9°C / 34.5%
h2-hermonville 15-08-2026 - 17:34 34.2°C / 32.5%
h1-hermonville 15-08-2026 - 17:33 32.1°C / 34.5%
h3-hermonville 15-08-2026 - 17:30 33.6°C / 32.5%
h2-hermonville 15-08-2026 - 17:24 34.3°C / 33%
h1-hermonville 15-08-2026 - 17:23 32.2°C / 34.5%
h3-hermonville 15-08-2026 - 17:20 33.5°C / 33%
h4-hermonville 15-08-2026 - 17:18 32.1°C / 35%
h2-hermonville 15-08-2026 - 17:14 34.7°C / 32%
h1-hermonville 15-08-2026 - 17:13 32.1°C / 35.5%
h3-hermonville 15-08-2026 - 17:10 33.5°C / 33%
h4-hermonville 15-08-2026 - 17:08 32°C / 35%
h2-hermonville 15-08-2026 - 17:04 34.7°C / 32%
h1-hermonville 15-08-2026 - 17:03 32.1°C / 35.5%
h4-hermonville 15-08-2026 - 16:58 32.1°C / 34.5%
h2-hermonville 15-08-2026 - 16:54 35°C / 31.5%
h1-hermonville 15-08-2026 - 16:53 32.3°C / 34%
h3-hermonville 15-08-2026 - 16:50 33.3°C / 32.5%
h4-hermonville 15-08-2026 - 16:48 32°C / 34.5%
h2-hermonville 15-08-2026 - 16:44 34.9°C / 31.5%
h1-hermonville 15-08-2026 - 16:43 32.1°C / 34%
h3-hermonville 15-08-2026 - 16:40 32.7°C / 33%
h4-hermonville 15-08-2026 - 16:38 32°C / 34%
h2-hermonville 15-08-2026 - 16:34 35°C / 31.5%
h1-hermonville 15-08-2026 - 16:33 32.3°C / 34%
h3-hermonville 15-08-2026 - 16:30 32.7°C / 33%
h4-hermonville 15-08-2026 - 16:28 32°C / 34%
h2-hermonville 15-08-2026 - 16:24 34.9°C / 31.5%
h1-hermonville 15-08-2026 - 16:23 32.5°C / 33.5%
h3-hermonville 15-08-2026 - 16:20 32.8°C / 33%
h4-hermonville 15-08-2026 - 16:18 32°C / 34%
h2-hermonville 15-08-2026 - 16:14 35.4°C / 31%
h1-hermonville 15-08-2026 - 16:13 32.4°C / 34%
h3-hermonville 15-08-2026 - 16:10 32.5°C / 34%
h4-hermonville 15-08-2026 - 16:08 32.2°C / 34.5%
h2-hermonville 15-08-2026 - 16:04 34.9°C / 31.5%
h1-hermonville 15-08-2026 - 16:03 32.2°C / 35.5%
h4-hermonville 15-08-2026 - 15:58 32.2°C / 35%
h2-hermonville 15-08-2026 - 15:54 34.5°C / 33%
h1-hermonville 15-08-2026 - 15:53 32.3°C / 35.5%
h3-hermonville 15-08-2026 - 15:50 32.8°C / 33.5%
h2-hermonville 15-08-2026 - 15:44 33.7°C / 33%
h1-hermonville 15-08-2026 - 15:43 32.2°C / 35%
h3-hermonville 15-08-2026 - 15:40 32.8°C / 34%
h4-hermonville 15-08-2026 - 15:38 32.3°C / 34.5%
h2-hermonville 15-08-2026 - 15:34 33.7°C / 33.5%
h1-hermonville 15-08-2026 - 15:33 32°C / 35.5%
h3-hermonville 15-08-2026 - 15:30 32.7°C / 33.5%
h4-hermonville 15-08-2026 - 15:28 32°C / 34.5%
h2-hermonville 15-08-2026 - 15:24 33.3°C / 33.5%
h1-hermonville 15-08-2026 - 15:23 31.7°C / 35%
h3-hermonville 15-08-2026 - 15:20 32.6°C / 33%
h4-hermonville 15-08-2026 - 15:18 32°C / 33.5%
h2-hermonville 15-08-2026 - 15:14 33.3°C / 32.5%
h1-hermonville 15-08-2026 - 15:13 31.5°C / 35%
h3-hermonville 15-08-2026 - 15:10 32.3°C / 32.5%
h1-hermonville 15-08-2026 - 15:03 31.7°C / 34%
h4-hermonville 15-08-2026 - 14:58 32.4°C / 33%
h2-hermonville 15-08-2026 - 14:54 32.4°C / 35.5%
h1-hermonville 15-08-2026 - 14:53 31.9°C / 34.5%
h3-hermonville 15-08-2026 - 14:50 32.4°C / 33.5%
h2-hermonville 15-08-2026 - 14:44 30.9°C / 36.5%
h1-hermonville 15-08-2026 - 14:43 31.3°C / 35%
h3-hermonville 15-08-2026 - 14:40 32.2°C / 33.5%
h4-hermonville 15-08-2026 - 14:38 32.1°C / 33.5%
h1-hermonville 15-08-2026 - 14:33 31.1°C / 35%
h3-hermonville 15-08-2026 - 14:30 32.3°C / 33%
h4-hermonville 15-08-2026 - 14:28 32°C / 33%
h1-hermonville 15-08-2026 - 14:23 30.8°C / 36.5%
h3-hermonville 15-08-2026 - 14:20 32.5°C / 33%
h4-hermonville 15-08-2026 - 14:18 31.6°C / 34%
h2-hermonville 15-08-2026 - 14:14 29.8°C / 39%
h1-hermonville 15-08-2026 - 14:13 30.5°C / 36%
h3-hermonville 15-08-2026 - 14:10 31.8°C / 33.5%
h4-hermonville 15-08-2026 - 14:08 31.3°C / 34%
h2-hermonville 15-08-2026 - 14:04 29.5°C / 39.5%
h1-hermonville 15-08-2026 - 14:03 30.2°C / 36%
h3-hermonville 15-08-2026 - 14:00 31.7°C / 33.5%
h4-hermonville 15-08-2026 - 13:58 31.3°C / 34%
h2-hermonville 15-08-2026 - 13:54 29.1°C / 39.5%
h1-hermonville 15-08-2026 - 13:53 29.9°C / 37%
h3-hermonville 15-08-2026 - 13:50 31.3°C / 34%
h4-hermonville 15-08-2026 - 13:48 31.3°C / 34.5%
h2-hermonville 15-08-2026 - 13:44 29.1°C / 40.5%
h1-hermonville 15-08-2026 - 13:43 29.6°C / 37.5%
h3-hermonville 15-08-2026 - 13:40 31.2°C / 35%
h2-hermonville 15-08-2026 - 13:34 28.9°C / 40%
h3-hermonville 15-08-2026 - 13:30 30.7°C / 35%
h4-hermonville 15-08-2026 - 13:28 31.3°C / 34.5%
h2-hermonville 15-08-2026 - 13:24 28.7°C / 41.5%
h1-hermonville 15-08-2026 - 13:23 29.2°C / 38%
h3-hermonville 15-08-2026 - 13:20 30.6°C / 36%
h4-hermonville 15-08-2026 - 13:18 31.4°C / 34.5%
h2-hermonville 15-08-2026 - 13:14 28.7°C / 41.5%
h1-hermonville 15-08-2026 - 13:13 29°C / 39.5%
h4-hermonville 15-08-2026 - 13:08 31.6°C / 35%
h2-hermonville 15-08-2026 - 13:04 28.8°C / 42%
h1-hermonville 15-08-2026 - 13:03 28.9°C / 41%
h3-hermonville 15-08-2026 - 13:00 30.2°C / 38%
h4-hermonville 15-08-2026 - 12:58 31.4°C / 36%
h2-hermonville 15-08-2026 - 12:54 29.1°C / 42.5%
h1-hermonville 15-08-2026 - 12:53 28.9°C / 41.5%
h3-hermonville 15-08-2026 - 12:50 30°C / 39.5%
h4-hermonville 15-08-2026 - 12:48 31.5°C / 36%
h2-hermonville 15-08-2026 - 12:44 28.5°C / 44%
h1-hermonville 15-08-2026 - 12:43 28.9°C / 42%
h3-hermonville 15-08-2026 - 12:40 29.9°C / 40.5%
h4-hermonville 15-08-2026 - 12:38 31.3°C / 37%
h2-hermonville 15-08-2026 - 12:34 28.5°C / 43.5%
h1-hermonville 15-08-2026 - 12:33 28.3°C / 43.5%
h3-hermonville 15-08-2026 - 12:30 29.3°C / 41%
h4-hermonville 15-08-2026 - 12:28 31°C / 36.5%
h2-hermonville 15-08-2026 - 12:24 28.4°C / 42.5%
h1-hermonville 15-08-2026 - 12:23 28.6°C / 42.5%
h3-hermonville 15-08-2026 - 12:20 29.3°C / 39.5%
h4-hermonville 15-08-2026 - 12:18 31.2°C / 35.5%
h2-hermonville 15-08-2026 - 12:14 28.7°C / 42.5%
h1-hermonville 15-08-2026 - 12:13 28.3°C / 41.5%
h3-hermonville 15-08-2026 - 12:10 29.1°C / 40%
h4-hermonville 15-08-2026 - 12:08 31.7°C / 35%
h2-hermonville 15-08-2026 - 12:04 28.2°C / 43.5%
h1-hermonville 15-08-2026 - 12:03 27.8°C / 43.5%
h3-hermonville 15-08-2026 - 12:00 28.6°C / 41.5%
h4-hermonville 15-08-2026 - 11:58 32.6°C / 34.5%
h2-hermonville 15-08-2026 - 11:54 28°C / 45.5%
h1-hermonville 15-08-2026 - 11:53 27.3°C / 45%
h3-hermonville 15-08-2026 - 11:50 28.1°C / 44.5%
h4-hermonville 15-08-2026 - 11:48 32°C / 37%
h1-hermonville 15-08-2026 - 11:43 26.7°C / 47.5%
h3-hermonville 15-08-2026 - 11:40 27.6°C / 45.5%
h4-hermonville 15-08-2026 - 11:38 30.2°C / 40%
h2-hermonville 15-08-2026 - 11:34 27.6°C / 46.5%
h1-hermonville 15-08-2026 - 11:33 26.6°C / 48.5%
h3-hermonville 15-08-2026 - 11:30 27.4°C / 47%
h4-hermonville 15-08-2026 - 11:28 28.5°C / 43.5%
h2-hermonville 15-08-2026 - 11:24 27.6°C / 46%
h1-hermonville 15-08-2026 - 11:23 26.5°C / 47.5%
h3-hermonville 15-08-2026 - 11:20 27.5°C / 45%
h4-hermonville 15-08-2026 - 11:18 28.4°C / 42.5%
h2-hermonville 15-08-2026 - 11:14 27.5°C / 45.5%
h1-hermonville 15-08-2026 - 11:13 27°C / 46.5%
h3-hermonville 15-08-2026 - 11:10 27.6°C / 44.5%
h4-hermonville 15-08-2026 - 11:08 28°C / 43.5%
h2-hermonville 15-08-2026 - 11:04 27.4°C / 45.5%
h1-hermonville 15-08-2026 - 11:03 26.9°C / 47%
h4-hermonville 15-08-2026 - 10:58 28.1°C / 43.5%
h2-hermonville 15-08-2026 - 10:54 27.6°C / 46%
h1-hermonville 15-08-2026 - 10:53 26.5°C / 48%
h3-hermonville 15-08-2026 - 10:50 27.7°C / 45.5%
h4-hermonville 15-08-2026 - 10:48 29°C / 42%
h2-hermonville 15-08-2026 - 10:44 27.7°C / 45.5%
h1-hermonville 15-08-2026 - 10:43 26.5°C / 47.5%
h3-hermonville 15-08-2026 - 10:40 27.5°C / 45.5%
h4-hermonville 15-08-2026 - 10:38 29.5°C / 40.5%
h2-hermonville 15-08-2026 - 10:34 27.7°C / 46%
h1-hermonville 15-08-2026 - 10:33 26.4°C / 48%
h3-hermonville 15-08-2026 - 10:30 27.5°C / 45%
h4-hermonville 15-08-2026 - 10:28 30°C / 39.5%
h1-hermonville 15-08-2026 - 10:23 26.5°C / 48.5%
h3-hermonville 15-08-2026 - 10:20 27.4°C / 45.5%
h4-hermonville 15-08-2026 - 10:18 30.2°C / 39.5%
h1-hermonville 15-08-2026 - 10:13 26.3°C / 48.5%
h3-hermonville 15-08-2026 - 10:10 27.4°C / 45.5%
h2-hermonville 15-08-2026 - 10:04 27.4°C / 47%
h1-hermonville 15-08-2026 - 10:03 26.5°C / 48.5%
h4-hermonville 15-08-2026 - 09:58 31.6°C / 38%
h1-hermonville 15-08-2026 - 09:53 26.4°C / 49.5%
h3-hermonville 15-08-2026 - 09:50 27.1°C / 47.5%
h4-hermonville 15-08-2026 - 09:48 29.7°C / 42%
h2-hermonville 15-08-2026 - 09:44 27.1°C / 48%
h1-hermonville 15-08-2026 - 09:43 25.9°C / 51%
h3-hermonville 15-08-2026 - 09:40 26.9°C / 47.5%
h4-hermonville 15-08-2026 - 09:38 31.5°C / 38%
h1-hermonville 15-08-2026 - 09:33 25.6°C / 52%
h3-hermonville 15-08-2026 - 09:30 26.7°C / 48%
h4-hermonville 15-08-2026 - 09:28 32.3°C / 36.5%
h1-hermonville 15-08-2026 - 09:23 25.1°C / 53%
h3-hermonville 15-08-2026 - 09:20 26.2°C / 49%
h4-hermonville 15-08-2026 - 09:18 31°C / 39%
h1-hermonville 15-08-2026 - 09:13 24.7°C / 53%
h3-hermonville 15-08-2026 - 09:10 26.1°C / 49.5%
h4-hermonville 15-08-2026 - 09:08 29.1°C / 42.5%
h2-hermonville 15-08-2026 - 09:04 26.1°C / 49.5%
h1-hermonville 15-08-2026 - 09:03 24.4°C / 54%
h4-hermonville 15-08-2026 - 08:58 27.3°C / 45.5%
h2-hermonville 15-08-2026 - 08:54 25.8°C / 50%
h1-hermonville 15-08-2026 - 08:53 24.3°C / 54%
h3-hermonville 15-08-2026 - 08:50 25.8°C / 49%
h4-hermonville 15-08-2026 - 08:48 26.8°C / 46.5%
h2-hermonville 15-08-2026 - 08:44 25.6°C / 50.5%
h1-hermonville 15-08-2026 - 08:43 24.5°C / 53%
h3-hermonville 15-08-2026 - 08:40 25.5°C / 49.5%
h4-hermonville 15-08-2026 - 08:38 26.3°C / 47%
h2-hermonville 15-08-2026 - 08:34 25.8°C / 49.5%
h1-hermonville 15-08-2026 - 08:33 24°C / 54%
h3-hermonville 15-08-2026 - 08:30 26°C / 48.5%
h4-hermonville 15-08-2026 - 08:28 25.8°C / 48%
h2-hermonville 15-08-2026 - 08:24 26.3°C / 48.5%
h1-hermonville 15-08-2026 - 08:23 23.9°C / 54.5%
h3-hermonville 15-08-2026 - 08:20 25.9°C / 48%
h4-hermonville 15-08-2026 - 08:18 25.5°C / 48.5%
h2-hermonville 15-08-2026 - 08:14 25.9°C / 48.5%
h3-hermonville 15-08-2026 - 08:10 25.9°C / 48%
h4-hermonville 15-08-2026 - 08:08 25.2°C / 50%
h2-hermonville 15-08-2026 - 08:04 26.1°C / 48%
h3-hermonville 15-08-2026 - 08:00 25.9°C / 48%
h4-hermonville 15-08-2026 - 07:58 25.4°C / 48.5%
h2-hermonville 15-08-2026 - 07:54 26°C / 48%
h1-hermonville 15-08-2026 - 07:53 23.9°C / 54%
h3-hermonville 15-08-2026 - 07:50 26°C / 47.5%
h4-hermonville 15-08-2026 - 07:48 25.7°C / 48%
h2-hermonville 15-08-2026 - 07:44 26°C / 48.5%
h1-hermonville 15-08-2026 - 07:43 24.3°C / 52.5%
h3-hermonville 15-08-2026 - 07:40 25.9°C / 47.5%
h4-hermonville 15-08-2026 - 07:38 26.3°C / 46.5%
h2-hermonville 15-08-2026 - 07:34 26.3°C / 47%
h1-hermonville 15-08-2026 - 07:33 24.7°C / 51.5%
h3-hermonville 15-08-2026 - 07:30 25.7°C / 47.5%
h4-hermonville 15-08-2026 - 07:28 26.6°C / 45%
h2-hermonville 15-08-2026 - 07:24 26°C / 47.5%
h1-hermonville 15-08-2026 - 07:23 24.3°C / 51.5%
h3-hermonville 15-08-2026 - 07:20 25.4°C / 48%
h4-hermonville 15-08-2026 - 07:18 26.6°C / 45%
h1-hermonville 15-08-2026 - 07:13 24.3°C / 51.5%
h3-hermonville 15-08-2026 - 07:10 25.6°C / 47.5%
h4-hermonville 15-08-2026 - 07:08 26.3°C / 45.5%
h2-hermonville 15-08-2026 - 07:04 26°C / 47%
h1-hermonville 15-08-2026 - 07:03 24.4°C / 51.5%
h3-hermonville 15-08-2026 - 07:00 25.4°C / 48%
h4-hermonville 15-08-2026 - 06:58 26.3°C / 45.5%
h2-hermonville 15-08-2026 - 06:54 26.3°C / 46%
h1-hermonville 15-08-2026 - 06:53 24.5°C / 51%
h3-hermonville 15-08-2026 - 06:50 25.3°C / 48%
h4-hermonville 15-08-2026 - 06:48 26.3°C / 45%
h2-hermonville 15-08-2026 - 06:44 26.4°C / 46%
h1-hermonville 15-08-2026 - 06:43 24.5°C / 50.5%
h3-hermonville 15-08-2026 - 06:40 25.1°C / 48%
h4-hermonville 15-08-2026 - 06:38 26.3°C / 45%
h2-hermonville 15-08-2026 - 06:34 26.3°C / 46.5%
h1-hermonville 15-08-2026 - 06:33 24.5°C / 50%
h3-hermonville 15-08-2026 - 06:30 25.2°C / 48%
h4-hermonville 15-08-2026 - 06:28 26.2°C / 45%
h2-hermonville 15-08-2026 - 06:24 26.3°C / 46%
h1-hermonville 15-08-2026 - 06:23 24.7°C / 49.5%
h3-hermonville 15-08-2026 - 06:20 25.1°C / 47.5%
h4-hermonville 15-08-2026 - 06:18 26.3°C / 44.5%
h2-hermonville 15-08-2026 - 06:14 26.2°C / 45.5%
h1-hermonville 15-08-2026 - 06:13 24.7°C / 49%
h3-hermonville 15-08-2026 - 06:10 25.1°C / 47%
h4-hermonville 15-08-2026 - 06:08 26.3°C / 44%
h2-hermonville 15-08-2026 - 06:04 26.3°C / 45%
h1-hermonville 15-08-2026 - 06:03 24.6°C / 48.5%
h3-hermonville 15-08-2026 - 06:00 25.1°C / 47%
h4-hermonville 15-08-2026 - 05:58 26.2°C / 44%
h2-hermonville 15-08-2026 - 05:54 26.3°C / 46%
h1-hermonville 15-08-2026 - 05:53 24.5°C / 49%
h3-hermonville 15-08-2026 - 05:50 25.1°C / 47.5%
h4-hermonville 15-08-2026 - 05:48 26.2°C / 44.5%
h2-hermonville 15-08-2026 - 05:44 26.4°C / 46.5%
h1-hermonville 15-08-2026 - 05:43 24.4°C / 51%
h3-hermonville 15-08-2026 - 05:40 25°C / 49%
h4-hermonville 15-08-2026 - 05:38 26.2°C / 45.5%
h2-hermonville 15-08-2026 - 05:34 26.4°C / 46.5%
h1-hermonville 15-08-2026 - 05:33 24.4°C / 51%
h3-hermonville 15-08-2026 - 05:30 24.9°C / 49.5%
h4-hermonville 15-08-2026 - 05:28 26.4°C / 45.5%
h2-hermonville 15-08-2026 - 05:24 26.2°C / 47%
h1-hermonville 15-08-2026 - 05:23 24.3°C / 52%
h3-hermonville 15-08-2026 - 05:20 25°C / 49.5%
h4-hermonville 15-08-2026 - 05:18 26.5°C / 45.5%
h2-hermonville 15-08-2026 - 05:14 26.3°C / 47%
h1-hermonville 15-08-2026 - 05:13 24.6°C / 51%
h3-hermonville 15-08-2026 - 05:10 25.1°C / 49%
h4-hermonville 15-08-2026 - 05:08 26.5°C / 45.5%
h2-hermonville 15-08-2026 - 05:04 26.1°C / 47.5%
h1-hermonville 15-08-2026 - 05:03 24.6°C / 51.5%
h3-hermonville 15-08-2026 - 05:00 25.1°C / 49%
h4-hermonville 15-08-2026 - 04:58 26.5°C / 45%
h2-hermonville 15-08-2026 - 04:54 25.6°C / 47.5%
h1-hermonville 15-08-2026 - 04:53 24.9°C / 49.5%
h3-hermonville 15-08-2026 - 04:50 25.4°C / 47%
h2-hermonville 15-08-2026 - 04:44 25.6°C / 45%
h1-hermonville 15-08-2026 - 04:43 25.5°C / 45.5%
h4-hermonville 15-08-2026 - 04:38 27°C / 39%
h2-hermonville 15-08-2026 - 04:34 25.9°C / 42%
h1-hermonville 15-08-2026 - 04:33 26.1°C / 41%
h3-hermonville 15-08-2026 - 04:30 26.4°C / 38.5%
h4-hermonville 15-08-2026 - 04:28 27.8°C / 35.5%
h1-hermonville 15-08-2026 - 04:23 26.5°C / 39%
h3-hermonville 15-08-2026 - 04:20 26.5°C / 37%
h4-hermonville 15-08-2026 - 04:18 28°C / 35.5%
h2-hermonville 15-08-2026 - 04:14 25.9°C / 40.5%
h1-hermonville 15-08-2026 - 04:13 26.4°C / 38.5%
h3-hermonville 15-08-2026 - 04:10 26.9°C / 38%
h4-hermonville 15-08-2026 - 04:08 28°C / 35.5%
h2-hermonville 15-08-2026 - 04:04 25.6°C / 41%
h1-hermonville 15-08-2026 - 04:03 26.4°C / 39%
h3-hermonville 15-08-2026 - 04:00 26.9°C / 38%
h4-hermonville 15-08-2026 - 03:58 28°C / 35%
h2-hermonville 15-08-2026 - 03:54 25.8°C / 41.5%
h1-hermonville 15-08-2026 - 03:53 26.5°C / 39%
h3-hermonville 15-08-2026 - 03:50 26.6°C / 35.5%
h4-hermonville 15-08-2026 - 03:48 27.8°C / 35.5%
h2-hermonville 15-08-2026 - 03:44 25.9°C / 41.5%
h1-hermonville 15-08-2026 - 03:43 26.5°C / 39%
h3-hermonville 15-08-2026 - 03:40 26.6°C / 39%
h4-hermonville 15-08-2026 - 03:38 27.9°C / 36.5%
h2-hermonville 15-08-2026 - 03:34 25.9°C / 40%
h1-hermonville 15-08-2026 - 03:33 26.4°C / 39%
h3-hermonville 15-08-2026 - 03:30 26.5°C / 37.5%
h4-hermonville 15-08-2026 - 03:28 27.9°C / 36.5%
h2-hermonville 15-08-2026 - 03:24 26°C / 41.5%
h1-hermonville 15-08-2026 - 03:23 26.6°C / 39%
h3-hermonville 15-08-2026 - 03:20 26.6°C / 38.5%
h4-hermonville 15-08-2026 - 03:18 28.1°C / 35.5%
h2-hermonville 15-08-2026 - 03:14 25.7°C / 41.5%
h1-hermonville 15-08-2026 - 03:13 26.6°C / 39.5%
h3-hermonville 15-08-2026 - 03:10 26.2°C / 39%
h4-hermonville 15-08-2026 - 03:08 28.1°C / 36%
h2-hermonville 15-08-2026 - 03:04 26°C / 42%
h1-hermonville 15-08-2026 - 03:03 26.7°C / 39.5%
h3-hermonville 15-08-2026 - 03:00 26.6°C / 39.5%
h4-hermonville 15-08-2026 - 02:58 28.2°C / 35.5%
h2-hermonville 15-08-2026 - 02:54 26.6°C / 40%
h1-hermonville 15-08-2026 - 02:53 27.1°C / 38%
h3-hermonville 15-08-2026 - 02:50 27.3°C / 36.5%
h4-hermonville 15-08-2026 - 02:48 28.3°C / 34.5%
h2-hermonville 15-08-2026 - 02:44 27.1°C / 38%
h1-hermonville 15-08-2026 - 02:43 27°C / 36.5%
h3-hermonville 15-08-2026 - 02:40 27°C / 37%
h4-hermonville 15-08-2026 - 02:38 28.2°C / 35.5%
h2-hermonville 15-08-2026 - 02:34 26.6°C / 39.5%
h1-hermonville 15-08-2026 - 02:33 26.9°C / 39%
h3-hermonville 15-08-2026 - 02:30 26.7°C / 39%
h4-hermonville 15-08-2026 - 02:28 28.3°C / 35.5%
h2-hermonville 15-08-2026 - 02:24 27.3°C / 37.5%
h1-hermonville 15-08-2026 - 02:23 27.3°C / 37.5%
h3-hermonville 15-08-2026 - 02:20 27.5°C / 36%
h4-hermonville 15-08-2026 - 02:18 28.4°C / 35%
h2-hermonville 15-08-2026 - 02:14 27.6°C / 36.5%
h1-hermonville 15-08-2026 - 02:13 27.4°C / 37%
h3-hermonville 15-08-2026 - 02:10 27.5°C / 36%
h4-hermonville 15-08-2026 - 02:08 28.2°C / 35%
h2-hermonville 15-08-2026 - 02:04 27.5°C / 37.5%
h3-hermonville 15-08-2026 - 02:00 27.3°C / 36%
h4-hermonville 15-08-2026 - 01:58 28.3°C / 35%
h2-hermonville 15-08-2026 - 01:54 27.3°C / 37.5%
h1-hermonville 15-08-2026 - 01:53 27.3°C / 37%
h3-hermonville 15-08-2026 - 01:50 27.6°C / 36.5%
h4-hermonville 15-08-2026 - 01:48 28.4°C / 35%
h2-hermonville 15-08-2026 - 01:44 27.1°C / 38%
h1-hermonville 15-08-2026 - 01:43 27.3°C / 38%
h3-hermonville 15-08-2026 - 01:40 28.1°C / 36%
h4-hermonville 15-08-2026 - 01:38 28.5°C / 35.5%
h2-hermonville 15-08-2026 - 01:34 27.2°C / 38.5%
h1-hermonville 15-08-2026 - 01:33 27.6°C / 38%
h3-hermonville 15-08-2026 - 01:30 28.4°C / 36%
h4-hermonville 15-08-2026 - 01:28 28.9°C / 34.5%
h2-hermonville 15-08-2026 - 01:24 27.3°C / 38.5%
h1-hermonville 15-08-2026 - 01:23 27.6°C / 37%
h3-hermonville 15-08-2026 - 01:20 28.2°C / 35%
h4-hermonville 15-08-2026 - 01:18 28.9°C / 34.5%
h2-hermonville 15-08-2026 - 01:14 27.6°C / 38%
h1-hermonville 15-08-2026 - 01:13 27.9°C / 37%
h3-hermonville 15-08-2026 - 01:10 28.3°C / 35%
h4-hermonville 15-08-2026 - 01:08 28.9°C / 34.5%
h2-hermonville 15-08-2026 - 01:04 27.7°C / 37.5%
h3-hermonville 15-08-2026 - 01:00 28.2°C / 35.5%
h4-hermonville 15-08-2026 - 00:58 28.9°C / 34.5%
h2-hermonville 15-08-2026 - 00:54 27.7°C / 38%
h1-hermonville 15-08-2026 - 00:53 27.8°C / 37%
h3-hermonville 15-08-2026 - 00:50 28.4°C / 36%
h4-hermonville 15-08-2026 - 00:48 29.2°C / 34.5%
h2-hermonville 15-08-2026 - 00:44 28°C / 37.5%
h1-hermonville 15-08-2026 - 00:43 27.9°C / 37%
h3-hermonville 15-08-2026 - 00:40 28.3°C / 35.5%
h4-hermonville 15-08-2026 - 00:38 29.2°C / 34%
h2-hermonville 15-08-2026 - 00:34 28.1°C / 37.5%
h1-hermonville 15-08-2026 - 00:33 28°C / 36%
h3-hermonville 15-08-2026 - 00:30 28.3°C / 35.5%
h4-hermonville 15-08-2026 - 00:28 29.2°C / 34%
h2-hermonville 15-08-2026 - 00:24 28.1°C / 37.5%
h3-hermonville 15-08-2026 - 00:20 28.3°C / 35.5%
h4-hermonville 15-08-2026 - 00:18 29.4°C / 34%
h2-hermonville 15-08-2026 - 00:14 28.1°C / 37.5%
h1-hermonville 15-08-2026 - 00:13 28°C / 36.5%
h3-hermonville 15-08-2026 - 00:10 28.6°C / 35.5%
h4-hermonville 15-08-2026 - 00:08 29.4°C / 34%
h2-hermonville 15-08-2026 - 00:04 28°C / 37%
h1-hermonville 15-08-2026 - 00:03 28.2°C / 36.5%
h3-hermonville 15-08-2026 - 00:00 28.7°C / 35%